Terminal Aerodrome Forecast
Issued by NWS

Home | Current Version | Previous Version | Text Only | Print | Product List | Glossary On
Versions: 1 2 3 4 5 6 7 8 9 10 11 12 13 14 15 16 17 18
000
FTUS44 KCRP 301300 AAA
TAFALI
TAF AMD
KALI 301355Z 3014/3112 04004KT 1/4SM FG VV002
     FM301500 09006KT 4SM BR SCT005
     FM301600 11004KT P6SM FEW250
     FM310300 12008KT P6SM FEW015 SCT060=

USA.gov is the U.S. government's official web portal to all federal, state and local government web resources and services.